sensor_id;sensor_type;location;lat;lon;timestamp;temperature;humidity
13123;DHT22;6627;50.920;12.050;2023-05-10T00:01:41;10.60;1.00
13123;DHT22;6627;50.920;12.050;2023-05-10T00:04:09;10.50;1.00
13123;DHT22;6627;50.920;12.050;2023-05-10T00:06:37;9.90;99.90
13123;DHT22;6627;50.920;12.050;2023-05-10T00:09:06;9.60;1.00
13123;DHT22;6627;50.920;12.050;2023-05-10T00:11:33;9.50;1.00
13123;DHT22;6627;50.920;12.050;2023-05-10T00:14:03;9.50;55.00
13123;DHT22;6627;50.920;12.050;2023-05-10T00:16:30;9.70;1.00
13123;DHT22;6627;50.920;12.050;2023-05-10T00:18:57;9.70;99.90
13123;DHT22;6627;50.920;12.050;2023-05-10T00:21:24;10.00;99.90
13123;DHT22;6627;50.920;12.050;2023-05-10T00:23:54;10.10;1.00
13123;DHT22;6627;50.920;12.050;2023-05-10T00:26:22;10.20;1.00
13123;DHT22;6627;50.920;12.050;2023-05-10T00:28:49;10.20;1.00
13123;DHT22;6627;50.920;12.050;2023-05-10T00:31:17;9.90;1.00
13123;DHT22;6627;50.920;12.050;2023-05-10T00:33:45;10.00;1.00
13123;DHT22;6627;50.920;12.050;2023-05-10T00:36:13;10.20;1.00
13123;DHT22;6627;50.920;12.050;2023-05-10T00:41:08;10.30;99.90
13123;DHT22;6627;50.920;12.050;2023-05-10T00:43:36;9.90;1.00
13123;DHT22;6627;50.920;12.050;2023-05-10T00:46:04;9.80;99.90
13123;DHT22;6627;50.920;12.050;2023-05-10T00:48:32;10.00;1.00
13123;DHT22;6627;50.920;12.050;2023-05-10T00:53:27;10.20;1.00
13123;DHT22;6627;50.920;12.050;2023-05-10T00:55:58;10.10;1.00
13123;DHT22;6627;50.920;12.050;2023-05-10T00:58:26;9.70;1.00
13123;DHT22;6627;50.920;12.050;2023-05-10T01:00:58;9.60;99.90
13123;DHT22;6627;50.920;12.050;2023-05-10T01:03:27;9.40;1.00
13123;DHT22;6627;50.920;12.050;2023-05-10T01:05:55;9.30;1.00
13123;DHT22;6627;50.920;12.050;2023-05-10T01:08:23;9.30;1.00
13123;DHT22;6627;50.920;12.050;2023-05-10T01:10:51;9.40;1.00
13123;DHT22;6627;50.920;12.050;2023-05-10T01:13:31;9.40;99.90
13123;DHT22;6627;50.920;12.050;2023-05-10T01:16:01;9.50;99.90
13123;DHT22;6627;50.920;12.050;2023-05-10T01:18:29;9.60;75.50
13123;DHT22;6627;50.920;12.050;2023-05-10T01:21:07;9.70;1.00
13123;DHT22;6627;50.920;12.050;2023-05-10T01:23:58;9.80;1.00
13123;DHT22;6627;50.920;12.050;2023-05-10T01:27:20;9.70;1.00
13123;DHT22;6627;50.920;12.050;2023-05-10T01:30:14;9.70;1.00
13123;DHT22;6627;50.920;12.050;2023-05-10T01:33:15;9.80;1.00
13123;DHT22;6627;50.920;12.050;2023-05-10T01:35:51;10.00;1.00
13123;DHT22;6627;50.920;12.050;2023-05-10T01:38:43;10.10;1.00
13123;DHT22;6627;50.920;12.050;2023-05-10T01:43:55;9.70;99.90
13123;DHT22;6627;50.920;12.050;2023-05-10T01:46:35;9.70;99.90
13123;DHT22;6627;50.920;12.050;2023-05-10T01:49:08;9.70;99.90
13123;DHT22;6627;50.920;12.050;2023-05-10T01:51:44;9.70;1.00
13123;DHT22;6627;50.920;12.050;2023-05-10T01:54:17;9.60;31.10
13123;DHT22;6627;50.920;12.050;2023-05-10T01:56:50;9.50;1.00
13123;DHT22;6627;50.920;12.050;2023-05-10T01:59:26;9.60;1.00
13123;DHT22;6627;50.920;12.050;2023-05-10T02:01:58;9.70;1.00
13123;DHT22;6627;50.920;12.050;2023-05-10T02:04:29;9.70;1.00
13123;DHT22;6627;50.920;12.050;2023-05-10T02:06:58;9.60;99.90
13123;DHT22;6627;50.920;12.050;2023-05-10T02:09:27;9.70;1.00
13123;DHT22;6627;50.920;12.050;2023-05-10T02:11:58;9.80;1.00
13123;DHT22;6627;50.920;12.050;2023-05-10T02:14:29;9.90;99.90
13123;DHT22;6627;50.920;12.050;2023-05-10T02:16:59;9.90;1.00
13123;DHT22;6627;50.920;12.050;2023-05-10T02:19:30;10.00;1.00
13123;DHT22;6627;50.920;12.050;2023-05-10T02:21:59;10.00;99.90
13123;DHT22;6627;50.920;12.050;2023-05-10T02:24:29;10.10;99.90
13123;DHT22;6627;50.920;12.050;2023-05-10T02:26:57;10.00;1.00
13123;DHT22;6627;50.920;12.050;2023-05-10T02:29:27;10.10;99.90
13123;DHT22;6627;50.920;12.050;2023-05-10T02:31:55;10.20;99.90
13123;DHT22;6627;50.920;12.050;2023-05-10T02:34:26;10.30;99.90
13123;DHT22;6627;50.920;12.050;2023-05-10T02:36:56;10.20;99.90
13123;DHT22;6627;50.920;12.050;2023-05-10T02:39:26;10.30;99.90
13123;DHT22;6627;50.920;12.050;2023-05-10T02:41:56;10.40;90.30
13123;DHT22;6627;50.920;12.050;2023-05-10T02:44:27;10.50;1.00
13123;DHT22;6627;50.920;12.050;2023-05-10T02:46:57;10.40;99.90
13123;DHT22;6627;50.920;12.050;2023-05-10T02:49:24;10.40;99.90
13123;DHT22;6627;50.920;12.050;2023-05-10T02:51:58;10.30;99.90
13123;DHT22;6627;50.920;12.050;2023-05-10T02:54:32;10.20;1.00
13123;DHT22;6627;50.920;12.050;2023-05-10T02:57:05;10.10;1.00
13123;DHT22;6627;50.920;12.050;2023-05-10T02:59:34;10.00;1.00
13123;DHT22;6627;50.920;12.050;2023-05-10T03:04:30;10.20;99.90
13123;DHT22;6627;50.920;12.050;2023-05-10T03:06:59;10.30;1.00
13123;DHT22;6627;50.920;12.050;2023-05-10T03:09:26;10.50;1.00
13123;DHT22;6627;50.920;12.050;2023-05-10T03:11:59;10.50;1.00
13123;DHT22;6627;50.920;12.050;2023-05-10T03:14:39;10.70;99.90
13123;DHT22;6627;50.920;12.050;2023-05-10T03:17:19;10.60;1.00
13123;DHT22;6627;50.920;12.050;2023-05-10T03:19:54;10.70;1.00
13123;DHT22;6627;50.920;12.050;2023-05-10T03:22:27;10.80;99.90
13123;DHT22;6627;50.920;12.050;2023-05-10T03:24:58;10.80;99.90
13123;DHT22;6627;50.920;12.050;2023-05-10T03:27:31;10.80;1.00
13123;DHT22;6627;50.920;12.050;2023-05-10T03:30:01;10.90;1.00
13123;DHT22;6627;50.920;12.050;2023-05-10T03:32:30;11.00;99.90
13123;DHT22;6627;50.920;12.050;2023-05-10T03:35:00;11.20;99.90
13123;DHT22;6627;50.920;12.050;2023-05-10T03:37:29;11.30;99.90
13123;DHT22;6627;50.920;12.050;2023-05-10T03:39:57;11.30;99.90
13123;DHT22;6627;50.920;12.050;2023-05-10T03:42:25;11.30;99.90
13123;DHT22;6627;50.920;12.050;2023-05-10T03:44:52;11.30;99.90
13123;DHT22;6627;50.920;12.050;2023-05-10T03:47:19;11.40;1.00
13123;DHT22;6627;50.920;12.050;2023-05-10T03:49:46;11.50;1.00
13123;DHT22;6627;50.920;12.050;2023-05-10T03:52:15;11.50;1.00
13123;DHT22;6627;50.920;12.050;2023-05-10T03:54:43;11.50;1.00
13123;DHT22;6627;50.920;12.050;2023-05-10T03:57:11;11.60;1.00
13123;DHT22;6627;50.920;12.050;2023-05-10T03:59:38;11.60;1.00
13123;DHT22;6627;50.920;12.050;2023-05-10T04:02:05;11.60;1.00
13123;DHT22;6627;50.920;12.050;2023-05-10T04:04:32;11.60;1.00
13123;DHT22;6627;50.920;12.050;2023-05-10T04:07:00;11.70;1.00
13123;DHT22;6627;50.920;12.050;2023-05-10T04:09:27;11.80;1.00
13123;DHT22;6627;50.920;12.050;2023-05-10T04:11:56;11.80;1.00
13123;DHT22;6627;50.920;12.050;2023-05-10T04:14:23;11.90;1.00
13123;DHT22;6627;50.920;12.050;2023-05-10T04:16:50;12.00;1.00
13123;DHT22;6627;50.920;12.050;2023-05-10T04:19:17;12.00;1.00
13123;DHT22;6627;50.920;12.050;2023-05-10T04:21:44;12.10;1.00
13123;DHT22;6627;50.920;12.050;2023-05-10T04:24:12;12.20;1.00
13123;DHT22;6627;50.920;12.050;2023-05-10T04:26:39;12.20;1.00
13123;DHT22;6627;50.920;12.050;2023-05-10T04:29:08;12.30;99.90
13123;DHT22;6627;50.920;12.050;2023-05-10T04:31:35;12.30;99.90
13123;DHT22;6627;50.920;12.050;2023-05-10T04:34:04;12.30;99.90
13123;DHT22;6627;50.920;12.050;2023-05-10T04:36:31;12.40;99.90
13123;DHT22;6627;50.920;12.050;2023-05-10T04:39:01;12.40;99.90
13123;DHT22;6627;50.920;12.050;2023-05-10T04:41:29;12.50;99.90
13123;DHT22;6627;50.920;12.050;2023-05-10T04:43:57;12.50;99.90
13123;DHT22;6627;50.920;12.050;2023-05-10T04:46:26;12.60;99.90
13123;DHT22;6627;50.920;12.050;2023-05-10T04:48:54;12.60;99.90
13123;DHT22;6627;50.920;12.050;2023-05-10T04:51:22;12.60;99.90
13123;DHT22;6627;50.920;12.050;2023-05-10T04:53:49;12.70;99.90
13123;DHT22;6627;50.920;12.050;2023-05-10T04:56:16;12.80;99.90
13123;DHT22;6627;50.920;12.050;2023-05-10T04:58:43;12.80;99.90
13123;DHT22;6627;50.920;12.050;2023-05-10T05:01:11;12.80;99.90
13123;DHT22;6627;50.920;12.050;2023-05-10T05:03:39;12.90;90.80
13123;DHT22;6627;50.920;12.050;2023-05-10T05:06:07;12.90;57.00
13123;DHT22;6627;50.920;12.050;2023-05-10T05:08:36;13.00;99.90
13123;DHT22;6627;50.920;12.050;2023-05-10T05:11:04;13.00;19.40
13123;DHT22;6627;50.920;12.050;2023-05-10T05:13:31;13.10;38.20
13123;DHT22;6627;50.920;12.050;2023-05-10T05:16:00;13.10;12.90
13123;DHT22;6627;50.920;12.050;2023-05-10T05:18:28;13.20;2.60
13123;DHT22;6627;50.920;12.050;2023-05-10T05:20:56;13.20;1.00
13123;DHT22;6627;50.920;12.050;2023-05-10T05:23:24;13.30;1.00
13123;DHT22;6627;50.920;12.050;2023-05-10T05:28:20;13.40;99.90
13123;DHT22;6627;50.920;12.050;2023-05-10T05:30:47;13.40;1.00
13123;DHT22;6627;50.920;12.050;2023-05-10T05:33:15;13.40;1.00
13123;DHT22;6627;50.920;12.050;2023-05-10T05:35:42;13.50;1.00
13123;DHT22;6627;50.920;12.050;2023-05-10T05:38:14;13.50;1.00
13123;DHT22;6627;50.920;12.050;2023-05-10T05:40:42;13.50;1.00
13123;DHT22;6627;50.920;12.050;2023-05-10T05:43:09;13.60;1.00
13123;DHT22;6627;50.920;12.050;2023-05-10T05:45:37;13.50;1.00
13123;DHT22;6627;50.920;12.050;2023-05-10T05:48:04;13.60;1.00
13123;DHT22;6627;50.920;12.050;2023-05-10T05:53:00;13.70;1.00
13123;DHT22;6627;50.920;12.050;2023-05-10T05:55:29;13.70;1.00
13123;DHT22;6627;50.920;12.050;2023-05-10T05:57:57;13.70;1.00
13123;DHT22;6627;50.920;12.050;2023-05-10T06:00:25;13.70;1.00
13123;DHT22;6627;50.920;12.050;2023-05-10T06:02:53;13.70;1.00
13123;DHT22;6627;50.920;12.050;2023-05-10T06:05:21;13.70;1.00
13123;DHT22;6627;50.920;12.050;2023-05-10T06:07:49;13.70;99.90
13123;DHT22;6627;50.920;12.050;2023-05-10T06:10:17;13.60;99.90
13123;DHT22;6627;50.920;12.050;2023-05-10T06:12:46;13.40;1.00
13123;DHT22;6627;50.920;12.050;2023-05-10T06:15:14;13.30;1.00
13123;DHT22;6627;50.920;12.050;2023-05-10T06:17:42;13.20;1.00
13123;DHT22;6627;50.920;12.050;2023-05-10T06:20:11;13.20;1.00
13123;DHT22;6627;50.920;12.050;2023-05-10T06:22:39;12.80;99.90
13123;DHT22;6627;50.920;12.050;2023-05-10T06:25:08;12.30;99.90
13123;DHT22;6627;50.920;12.050;2023-05-10T06:27:37;12.30;1.00
13123;DHT22;6627;50.920;12.050;2023-05-10T06:30:06;12.20;76.10
13123;DHT22;6627;50.920;12.050;2023-05-10T06:32:35;12.20;1.00
13123;DHT22;6627;50.920;12.050;2023-05-10T06:35:02;12.10;1.00
13123;DHT22;6627;50.920;12.050;2023-05-10T06:37:30;12.20;1.00
13123;DHT22;6627;50.920;12.050;2023-05-10T06:39:58;12.30;1.00
13123;DHT22;6627;50.920;12.050;2023-05-10T06:42:25;12.20;1.00
13123;DHT22;6627;50.920;12.050;2023-05-10T06:44:53;12.20;1.00
13123;DHT22;6627;50.920;12.050;2023-05-10T06:47:21;12.10;74.60
13123;DHT22;6627;50.920;12.050;2023-05-10T06:49:49;12.10;1.00
13123;DHT22;6627;50.920;12.050;2023-05-10T06:52:16;12.20;99.90
13123;DHT22;6627;50.920;12.050;2023-05-10T06:54:43;12.20;1.00
13123;DHT22;6627;50.920;12.050;2023-05-10T06:57:11;12.40;99.90
13123;DHT22;6627;50.920;12.050;2023-05-10T06:59:39;12.20;99.90
13123;DHT22;6627;50.920;12.050;2023-05-10T07:02:06;12.50;99.90
13123;DHT22;6627;50.920;12.050;2023-05-10T07:04:35;12.60;43.50
13123;DHT22;6627;50.920;12.050;2023-05-10T07:07:03;12.70;99.90
13123;DHT22;6627;50.920;12.050;2023-05-10T07:09:31;12.60;1.00
13123;DHT22;6627;50.920;12.050;2023-05-10T07:11:58;12.70;99.90
13123;DHT22;6627;50.920;12.050;2023-05-10T07:14:28;12.80;6.90
13123;DHT22;6627;50.920;12.050;2023-05-10T07:16:56;12.80;99.90
13123;DHT22;6627;50.920;12.050;2023-05-10T07:19:24;12.90;1.00
13123;DHT22;6627;50.920;12.050;2023-05-10T07:21:53;12.80;1.00
13123;DHT22;6627;50.920;12.050;2023-05-10T07:24:20;12.90;1.00
13123;DHT22;6627;50.920;12.050;2023-05-10T07:26:48;12.90;1.00
13123;DHT22;6627;50.920;12.050;2023-05-10T07:29:16;12.90;1.00
13123;DHT22;6627;50.920;12.050;2023-05-10T07:34:11;12.90;1.00
13123;DHT22;6627;50.920;12.050;2023-05-10T07:36:39;12.90;1.00
13123;DHT22;6627;50.920;12.050;2023-05-10T07:39:09;12.90;1.00
13123;DHT22;6627;50.920;12.050;2023-05-10T07:41:36;12.90;1.00
13123;DHT22;6627;50.920;12.050;2023-05-10T07:46:33;12.90;35.60
13123;DHT22;6627;50.920;12.050;2023-05-10T07:49:01;12.80;99.90
13123;DHT22;6627;50.920;12.050;2023-05-10T07:51:28;12.90;1.00
13123;DHT22;6627;50.920;12.050;2023-05-10T07:53:56;12.90;1.00
13123;DHT22;6627;50.920;12.050;2023-05-10T07:56:26;12.80;30.70
13123;DHT22;6627;50.920;12.050;2023-05-10T07:58:57;12.80;1.00
13123;DHT22;6627;50.920;12.050;2023-05-10T08:01:26;12.80;99.90
13123;DHT22;6627;50.920;12.050;2023-05-10T08:03:56;12.80;1.00
13123;DHT22;6627;50.920;12.050;2023-05-10T08:06:24;12.90;1.00
13123;DHT22;6627;50.920;12.050;2023-05-10T08:08:53;12.90;95.10
13123;DHT22;6627;50.920;12.050;2023-05-10T08:11:21;13.00;99.90
13123;DHT22;6627;50.920;12.050;2023-05-10T08:13:51;13.10;1.00
13123;DHT22;6627;50.920;12.050;2023-05-10T08:18:47;13.10;99.90
13123;DHT22;6627;50.920;12.050;2023-05-10T08:21:15;13.10;99.90
13123;DHT22;6627;50.920;12.050;2023-05-10T08:23:44;13.20;5.30
13123;DHT22;6627;50.920;12.050;2023-05-10T08:26:11;13.20;1.00
13123;DHT22;6627;50.920;12.050;2023-05-10T08:28:38;13.20;99.90
13123;DHT22;6627;50.920;12.050;2023-05-10T08:31:07;13.20;1.00
13123;DHT22;6627;50.920;12.050;2023-05-10T08:33:35;13.30;23.50
13123;DHT22;6627;50.920;12.050;2023-05-10T08:36:02;13.30;1.00
13123;DHT22;6627;50.920;12.050;2023-05-10T08:38:31;13.40;99.90
13123;DHT22;6627;50.920;12.050;2023-05-10T08:40:59;13.40;99.90
13123;DHT22;6627;50.920;12.050;2023-05-10T08:43:30;13.50;1.00
13123;DHT22;6627;50.920;12.050;2023-05-10T08:46:00;13.60;1.00
13123;DHT22;6627;50.920;12.050;2023-05-10T08:48:30;13.60;99.90
13123;DHT22;6627;50.920;12.050;2023-05-10T08:51:02;13.70;1.00
13123;DHT22;6627;50.920;12.050;2023-05-10T08:53:31;13.70;1.00
13123;DHT22;6627;50.920;12.050;2023-05-10T08:56:02;13.70;1.00
13123;DHT22;6627;50.920;12.050;2023-05-10T08:58:31;13.60;99.90
13123;DHT22;6627;50.920;12.050;2023-05-10T09:00:59;13.60;1.00
13123;DHT22;6627;50.920;12.050;2023-05-10T09:03:28;13.60;1.00
13123;DHT22;6627;50.920;12.050;2023-05-10T09:05:58;13.70;99.90
13123;DHT22;6627;50.920;12.050;2023-05-10T09:08:26;13.70;1.00
13123;DHT22;6627;50.920;12.050;2023-05-10T09:10:55;13.70;1.00
13123;DHT22;6627;50.920;12.050;2023-05-10T09:13:24;13.70;99.90
13123;DHT22;6627;50.920;12.050;2023-05-10T09:15:52;13.80;1.00
13123;DHT22;6627;50.920;12.050;2023-05-10T09:18:21;13.80;1.00
13123;DHT22;6627;50.920;12.050;2023-05-10T09:20:50;13.80;77.40
13123;DHT22;6627;50.920;12.050;2023-05-10T09:23:18;13.90;14.30
13123;DHT22;6627;50.920;12.050;2023-05-10T09:25:46;13.90;16.00
13123;DHT22;6627;50.920;12.050;2023-05-10T09:28:13;14.00;99.90
13123;DHT22;6627;50.920;12.050;2023-05-10T09:30:40;14.00;99.90
13123;DHT22;6627;50.920;12.050;2023-05-10T09:33:08;14.00;99.90
13123;DHT22;6627;50.920;12.050;2023-05-10T09:35:36;14.00;99.90
13123;DHT22;6627;50.920;12.050;2023-05-10T09:38:07;14.10;99.90
13123;DHT22;6627;50.920;12.050;2023-05-10T09:40:35;14.10;99.90
13123;DHT22;6627;50.920;12.050;2023-05-10T09:43:04;14.10;99.90
13123;DHT22;6627;50.920;12.050;2023-05-10T09:45:35;14.10;99.90
13123;DHT22;6627;50.920;12.050;2023-05-10T09:50:31;14.00;99.90
13123;DHT22;6627;50.920;12.050;2023-05-10T09:53:00;14.00;99.90
13123;DHT22;6627;50.920;12.050;2023-05-10T09:55:40;14.00;99.90
13123;DHT22;6627;50.920;12.050;2023-05-10T09:58:11;14.20;99.90
13123;DHT22;6627;50.920;12.050;2023-05-10T10:00:39;14.20;99.90
13123;DHT22;6627;50.920;12.050;2023-05-10T10:03:13;14.30;99.90
13123;DHT22;6627;50.920;12.050;2023-05-10T10:05:42;14.40;99.90
13123;DHT22;6627;50.920;12.050;2023-05-10T10:08:11;14.30;99.90
13123;DHT22;6627;50.920;12.050;2023-05-10T10:10:41;14.20;99.90
13123;DHT22;6627;50.920;12.050;2023-05-10T10:13:10;14.20;99.90
13123;DHT22;6627;50.920;12.050;2023-05-10T10:15:38;14.10;99.90
13123;DHT22;6627;50.920;12.050;2023-05-10T10:18:06;14.20;99.90
13123;DHT22;6627;50.920;12.050;2023-05-10T10:20:39;14.00;99.90
13123;DHT22;6627;50.920;12.050;2023-05-10T10:23:08;14.10;99.90
13123;DHT22;6627;50.920;12.050;2023-05-10T10:25:35;14.30;99.90
13123;DHT22;6627;50.920;12.050;2023-05-10T10:28:16;14.20;99.90
13123;DHT22;6627;50.920;12.050;2023-05-10T10:30:52;14.30;99.90
13123;DHT22;6627;50.920;12.050;2023-05-10T10:33:39;14.40;99.90
13123;DHT22;6627;50.920;12.050;2023-05-10T10:36:15;14.50;99.90
13123;DHT22;6627;50.920;12.050;2023-05-10T10:38:55;14.50;99.90
13123;DHT22;6627;50.920;12.050;2023-05-10T10:41:31;14.60;99.90
13123;DHT22;6627;50.920;12.050;2023-05-10T10:44:35;14.80;99.90
13123;DHT22;6627;50.920;12.050;2023-05-10T10:47:06;14.90;99.90
13123;DHT22;6627;50.920;12.050;2023-05-10T10:49:48;14.90;99.90
13123;DHT22;6627;50.920;12.050;2023-05-10T10:52:25;14.80;99.90
13123;DHT22;6627;50.920;12.050;2023-05-10T10:55:00;14.90;99.90
13123;DHT22;6627;50.920;12.050;2023-05-10T10:57:32;14.80;99.90
13123;DHT22;6627;50.920;12.050;2023-05-10T11:00:25;14.70;99.90
13123;DHT22;6627;50.920;12.050;2023-05-10T11:02:57;14.80;99.90
13123;DHT22;6627;50.920;12.050;2023-05-10T11:05:37;15.00;99.90
13123;DHT22;6627;50.920;12.050;2023-05-10T11:08:15;15.10;99.90
13123;DHT22;6627;50.920;12.050;2023-05-10T11:11:02;15.10;99.90
13123;DHT22;6627;50.920;12.050;2023-05-10T11:13:34;15.20;99.90
13123;DHT22;6627;50.920;12.050;2023-05-10T11:16:16;15.20;99.90
13123;DHT22;6627;50.920;12.050;2023-05-10T11:18:58;15.20;99.90
13123;DHT22;6627;50.920;12.050;2023-05-10T11:21:29;15.30;99.90
13123;DHT22;6627;50.920;12.050;2023-05-10T11:23:58;15.30;99.90
13123;DHT22;6627;50.920;12.050;2023-05-10T11:26:31;15.20;99.90
13123;DHT22;6627;50.920;12.050;2023-05-10T11:28:59;15.30;99.90
13123;DHT22;6627;50.920;12.050;2023-05-10T11:31:29;15.40;99.90
13123;DHT22;6627;50.920;12.050;2023-05-10T11:33:58;15.40;99.90
13123;DHT22;6627;50.920;12.050;2023-05-10T11:36:28;15.40;99.90
13123;DHT22;6627;50.920;12.050;2023-05-10T11:38:59;15.50;99.90
13123;DHT22;6627;50.920;12.050;2023-05-10T11:41:29;15.60;99.90
13123;DHT22;6627;50.920;12.050;2023-05-10T11:43:58;15.50;99.90
13123;DHT22;6627;50.920;12.050;2023-05-10T11:46:27;15.50;99.90
13123;DHT22;6627;50.920;12.050;2023-05-10T11:48:58;15.60;99.90
13123;DHT22;6627;50.920;12.050;2023-05-10T11:51:33;15.50;99.90
13123;DHT22;6627;50.920;12.050;2023-05-10T11:54:06;15.60;99.90
13123;DHT22;6627;50.920;12.050;2023-05-10T11:56:36;15.50;99.90
13123;DHT22;6627;50.920;12.050;2023-05-10T11:59:04;15.40;99.90
13123;DHT22;6627;50.920;12.050;2023-05-10T12:01:33;15.50;99.90
13123;DHT22;6627;50.920;12.050;2023-05-10T12:04:01;15.70;99.90
13123;DHT22;6627;50.920;12.050;2023-05-10T12:06:31;15.70;99.90
13123;DHT22;6627;50.920;12.050;2023-05-10T12:09:06;15.70;99.90
13123;DHT22;6627;50.920;12.050;2023-05-10T12:11:37;15.80;99.90
13123;DHT22;6627;50.920;12.050;2023-05-10T12:14:07;15.80;99.90
13123;DHT22;6627;50.920;12.050;2023-05-10T12:16:36;15.90;99.90
13123;DHT22;6627;50.920;12.050;2023-05-10T12:19:04;15.90;99.90
13123;DHT22;6627;50.920;12.050;2023-05-10T12:21:32;15.80;99.90
13123;DHT22;6627;50.920;12.050;2023-05-10T12:24:02;15.90;99.90
13123;DHT22;6627;50.920;12.050;2023-05-10T12:26:30;16.00;99.90
13123;DHT22;6627;50.920;12.050;2023-05-10T12:29:12;16.00;99.90
13123;DHT22;6627;50.920;12.050;2023-05-10T12:31:53;15.90;99.90
13123;DHT22;6627;50.920;12.050;2023-05-10T12:34:25;15.90;99.90
13123;DHT22;6627;50.920;12.050;2023-05-10T12:36:54;16.00;99.90
13123;DHT22;6627;50.920;12.050;2023-05-10T12:39:22;16.10;99.90
13123;DHT22;6627;50.920;12.050;2023-05-10T12:41:50;16.10;99.90
13123;DHT22;6627;50.920;12.050;2023-05-10T12:44:18;16.10;99.90
13123;DHT22;6627;50.920;12.050;2023-05-10T12:46:46;16.10;99.90
13123;DHT22;6627;50.920;12.050;2023-05-10T12:49:14;15.90;99.90
13123;DHT22;6627;50.920;12.050;2023-05-10T12:51:43;15.70;99.90
13123;DHT22;6627;50.920;12.050;2023-05-10T12:54:10;15.90;99.90
13123;DHT22;6627;50.920;12.050;2023-05-10T12:56:37;15.90;99.90
13123;DHT22;6627;50.920;12.050;2023-05-10T12:59:07;15.80;99.90
13123;DHT22;6627;50.920;12.050;2023-05-10T13:01:34;15.80;99.90
13123;DHT22;6627;50.920;12.050;2023-05-10T13:04:02;15.70;99.90
13123;DHT22;6627;50.920;12.050;2023-05-10T13:06:31;15.50;99.90
13123;DHT22;6627;50.920;12.050;2023-05-10T13:08:58;15.40;99.90
13123;DHT22;6627;50.920;12.050;2023-05-10T13:11:26;15.40;99.90
